createdAt,value
2023-02-15T00:00:16.563Z,8.85
2023-02-15T00:01:28.023Z,9.63
2023-02-15T00:02:39.943Z,7.85
2023-02-15T00:03:51.804Z,10.93
2023-02-15T00:05:03.423Z,9.27
2023-02-15T00:06:14.972Z,8.27
2023-02-15T00:07:26.447Z,7.30
2023-02-15T00:08:37.912Z,8.07
2023-02-15T00:09:49.598Z,7.80
2023-02-15T00:11:40.622Z,7.90
2023-02-15T00:12:52.223Z,8.90
2023-02-15T00:14:04.594Z,10.57
2023-02-15T00:15:16.152Z,10.10
2023-02-15T00:16:27.609Z,10.40
2023-02-15T00:17:39.059Z,8.57
2023-02-15T00:18:52.857Z,9.50
2023-02-15T00:20:04.432Z,7.55
2023-02-15T00:21:15.888Z,7.07
2023-02-15T00:22:27.326Z,6.70
2023-02-15T00:23:38.757Z,6.88
2023-02-15T00:24:51.085Z,6.20
2023-02-15T00:26:09.977Z,8.70
2023-02-15T00:27:21.438Z,6.72
2023-02-15T00:28:32.965Z,7.82
2023-02-15T00:29:44.482Z,7.88
2023-02-15T00:30:56.057Z,9.25
2023-02-15T00:32:07.634Z,7.35
2023-02-15T00:33:19.096Z,6.85
2023-02-15T00:34:30.684Z,12.90
2023-02-15T00:35:42.248Z,9.38
2023-02-15T00:36:53.773Z,8.65
2023-02-15T00:38:05.274Z,10.43
2023-02-15T00:39:17.331Z,6.93
2023-02-15T00:40:28.831Z,8.40
2023-02-15T00:41:40.313Z,5.45
2023-02-15T00:42:51.886Z,6.47
2023-02-15T00:44:03.903Z,7.55
2023-02-15T00:45:17.298Z,6.40
2023-02-15T00:46:28.908Z,6.70
2023-02-15T00:47:40.379Z,5.63
2023-02-15T00:48:51.847Z,6.25
2023-02-15T00:50:04.205Z,7.90
2023-02-15T00:51:15.824Z,4.88
2023-02-15T00:52:27.272Z,6.20
2023-02-15T00:53:38.740Z,5.97
2023-02-15T00:54:50.218Z,7.07
2023-02-15T00:56:01.831Z,6.80
2023-02-15T00:57:13.466Z,7.53
2023-02-15T00:58:25.301Z,5.47
2023-02-15T00:59:36.763Z,5.53
2023-02-15T01:00:48.709Z,6.95
2023-02-15T01:02:00.140Z,6.25
2023-02-15T01:03:12.044Z,6.22
2023-02-15T01:04:23.589Z,5.18
2023-02-15T01:05:35.064Z,5.88
2023-02-15T01:06:46.506Z,5.85
2023-02-15T01:07:58.264Z,6.00
2023-02-15T01:09:09.723Z,5.15
2023-02-15T01:10:21.246Z,7.57
2023-02-15T01:11:32.717Z,5.45
2023-02-15T01:12:44.160Z,6.63
2023-02-15T01:13:57.322Z,6.38
2023-02-15T01:15:08.893Z,6.05
2023-02-15T01:16:20.486Z,5.57
2023-02-15T01:17:32.490Z,6.40
2023-02-15T01:18:43.986Z,5.90
2023-02-15T01:19:55.475Z,5.15
2023-02-15T01:21:10.787Z,5.50
2023-02-15T01:22:22.280Z,6.53
2023-02-15T01:23:34.347Z,5.55
2023-02-15T01:24:46.290Z,5.18
2023-02-15T01:26:02.427Z,6.13
2023-02-15T01:27:14.106Z,5.63
2023-02-15T01:28:25.589Z,6.50
2023-02-15T01:29:37.052Z,5.30
2023-02-15T01:30:48.725Z,5.30
2023-02-15T01:32:00.403Z,5.97
2023-02-15T01:33:18.616Z,5.85
2023-02-15T01:34:30.492Z,5.63
2023-02-15T01:35:41.984Z,5.13
2023-02-15T01:36:53.471Z,6.57
2023-02-15T01:38:05.074Z,7.57
2023-02-15T01:39:16.550Z,6.93
2023-02-15T01:40:28.034Z,6.22
2023-02-15T01:41:39.608Z,5.95
2023-02-15T01:42:52.111Z,7.07
2023-02-15T01:44:04.089Z,5.30
2023-02-15T01:45:24.004Z,6.30
2023-02-15T01:46:41.621Z,7.68
2023-02-15T01:47:53.025Z,6.10
2023-02-15T01:49:09.137Z,6.18
2023-02-15T01:50:24.307Z,6.55
2023-02-15T01:51:38.008Z,5.40
2023-02-15T01:53:04.540Z,6.72
2023-02-15T01:54:22.707Z,4.95
2023-02-15T01:55:57.508Z,5.20
2023-02-15T01:57:13.806Z,6.43
2023-02-15T01:58:26.354Z,6.85
2023-02-15T01:59:38.762Z,6.65
2023-02-15T02:00:50.395Z,7.28
2023-02-15T02:02:02.627Z,4.97
2023-02-15T02:03:14.559Z,6.80
2023-02-15T02:04:33.956Z,7.15
2023-02-15T02:05:45.499Z,6.38
2023-02-15T02:06:58.617Z,6.07
2023-02-15T02:08:10.735Z,6.43
2023-02-15T02:09:22.182Z,6.63
2023-02-15T02:10:33.750Z,6.57
2023-02-15T02:11:46.474Z,5.22
2023-02-15T02:13:00.185Z,6.10
2023-02-15T02:14:11.814Z,6.35
2023-02-15T02:15:28.938Z,6.47
2023-02-15T02:16:40.398Z,6.65
2023-02-15T02:18:10.529Z,5.75
2023-02-15T02:19:28.077Z,5.68
2023-02-15T02:21:05.929Z,5.45
2023-02-15T02:22:36.120Z,5.05
2023-02-15T02:23:55.871Z,4.68
2023-02-15T02:25:16.507Z,5.40
2023-02-15T02:26:43.075Z,6.57
2023-02-15T02:27:54.491Z,5.30
2023-02-15T02:29:05.924Z,5.57
2023-02-15T02:30:17.562Z,6.93
2023-02-15T02:31:52.028Z,6.65
2023-02-15T02:33:20.870Z,6.75
2023-02-15T02:34:32.426Z,5.28
2023-02-15T02:35:49.912Z,6.28
2023-02-15T02:37:04.128Z,6.20
2023-02-15T02:38:29.847Z,7.18
2023-02-15T02:39:46.243Z,7.03
2023-02-15T02:41:14.194Z,8.52
2023-02-15T02:42:28.709Z,6.68
2023-02-15T02:43:52.488Z,5.90
2023-02-15T02:45:06.917Z,6.78
2023-02-15T02:46:22.269Z,6.88
2023-02-15T02:47:37.392Z,7.32
2023-02-15T02:48:49.996Z,6.13
2023-02-15T02:50:06.282Z,8.10
2023-02-15T02:51:22.386Z,7.22
2023-02-15T02:52:40.069Z,5.78
2023-02-15T02:53:54.441Z,6.50
2023-02-15T02:55:18.506Z,9.07
2023-02-15T02:56:44.320Z,8.10
2023-02-15T02:57:58.769Z,8.95
2023-02-15T02:59:10.195Z,7.03
2023-02-15T03:00:23.003Z,8.18
2023-02-15T03:01:37.681Z,8.02
2023-02-15T03:02:52.462Z,7.05
2023-02-15T03:04:08.413Z,9.27
2023-02-15T03:05:22.442Z,9.82
2023-02-15T03:06:37.337Z,9.52
2023-02-15T03:07:52.077Z,10.27
2023-02-15T03:09:15.393Z,9.32
2023-02-15T03:10:27.208Z,8.43
2023-02-15T03:11:38.692Z,9.73
2023-02-15T03:12:50.618Z,9.02
2023-02-15T03:14:02.173Z,9.10
2023-02-15T03:15:50.546Z,8.50
2023-02-15T03:17:02.967Z,9.23
2023-02-15T03:18:14.816Z,8.30
2023-02-15T03:19:28.560Z,7.95
2023-02-15T03:20:40.030Z,8.82
2023-02-15T03:21:58.710Z,7.45
2023-02-15T03:23:14.288Z,8.95
2023-02-15T03:24:31.195Z,8.75
2023-02-15T03:25:47.586Z,10.18
2023-02-15T03:26:59.914Z,8.38
2023-02-15T03:28:14.372Z,8.95
2023-02-15T03:29:28.734Z,9.32
2023-02-15T03:30:41.226Z,7.15
2023-02-15T03:31:56.519Z,7.63
2023-02-15T03:33:08.568Z,8.50
2023-02-15T03:34:20.105Z,6.80
2023-02-15T03:35:35.246Z,7.65
2023-02-15T03:36:54.532Z,6.45
2023-02-15T03:38:07.716Z,5.43
2023-02-15T03:39:27.952Z,7.40
2023-02-15T03:41:00.019Z,7.07
2023-02-15T03:42:14.864Z,5.57
2023-02-15T03:43:31.897Z,6.90
2023-02-15T03:44:46.452Z,6.32
2023-02-15T03:46:01.327Z,6.35
2023-02-15T03:47:15.579Z,8.18
2023-02-15T03:48:32.701Z,6.75
2023-02-15T03:49:51.650Z,5.60
2023-02-15T03:51:27.439Z,7.00
2023-02-15T03:52:38.945Z,6.40
2023-02-15T03:53:50.942Z,6.45
2023-02-15T03:55:02.451Z,5.10
2023-02-15T03:56:13.932Z,5.45
2023-02-15T03:57:45.568Z,5.43
2023-02-15T03:59:15.737Z,5.22
2023-02-15T04:00:45.999Z,4.18
2023-02-15T04:02:05.849Z,3.72
2023-02-15T04:03:35.722Z,4.97
2023-02-15T04:04:48.021Z,5.50
2023-02-15T04:06:01.382Z,5.75
2023-02-15T04:07:13.075Z,4.20
2023-02-15T04:08:44.446Z,5.95
2023-02-15T04:10:14.590Z,4.22
2023-02-15T04:11:26.016Z,4.80
2023-02-15T04:12:37.492Z,5.25
2023-02-15T04:13:48.965Z,3.85
2023-02-15T04:15:19.044Z,5.30
2023-02-15T04:16:31.335Z,4.53
2023-02-15T04:17:42.959Z,5.10
2023-02-15T04:19:13.164Z,4.80
2023-02-15T04:20:43.026Z,5.05
2023-02-15T04:22:12.972Z,4.55
2023-02-15T04:23:42.786Z,5.47
2023-02-15T04:25:13.534Z,5.70
2023-02-15T04:26:25.005Z,4.57
2023-02-15T04:27:36.817Z,3.88
2023-02-15T04:28:48.397Z,5.10
2023-02-15T04:29:59.902Z,3.97
2023-02-15T04:31:11.564Z,5.32
2023-02-15T04:32:23.249Z,5.40
2023-02-15T04:33:36.849Z,4.85
2023-02-15T04:34:48.441Z,6.25
2023-02-15T04:36:00.135Z,5.35
2023-02-15T04:37:11.986Z,4.53
2023-02-15T04:38:23.655Z,6.63
2023-02-15T04:39:35.213Z,5.22
2023-02-15T04:40:50.313Z,4.95
2023-02-15T04:42:01.850Z,5.10
2023-02-15T04:43:13.255Z,5.07
2023-02-15T04:44:24.904Z,6.00
2023-02-15T04:45:36.445Z,5.15
2023-02-15T04:46:48.062Z,4.60
2023-02-15T04:47:59.593Z,4.85
2023-02-15T04:49:11.098Z,4.72
2023-02-15T04:50:22.579Z,5.95
2023-02-15T04:51:34.050Z,4.68
2023-02-15T04:52:45.791Z,5.40
2023-02-15T04:53:57.838Z,5.35
2023-02-15T04:55:09.763Z,5.03
2023-02-15T04:56:21.406Z,5.93
2023-02-15T04:57:32.887Z,4.85
2023-02-15T04:58:44.301Z,7.75
2023-02-15T04:59:55.971Z,8.77
2023-02-15T05:01:07.931Z,8.02
2023-02-15T05:02:19.718Z,9.18
2023-02-15T05:03:31.188Z,8.15
2023-02-15T05:04:42.756Z,7.60
2023-02-15T05:05:54.267Z,7.28
2023-02-15T05:07:05.785Z,7.75
2023-02-15T05:08:17.619Z,8.45
2023-02-15T05:09:29.079Z,7.25
2023-02-15T05:10:40.607Z,8.93
2023-02-15T05:11:52.234Z,7.43
2023-02-15T05:13:03.710Z,8.05
2023-02-15T05:14:15.266Z,6.75
2023-02-15T05:15:26.751Z,6.72
2023-02-15T05:16:38.233Z,5.63
2023-02-15T05:17:49.930Z,7.13
2023-02-15T05:19:01.412Z,6.32
2023-02-15T05:20:12.918Z,5.93
2023-02-15T05:21:24.348Z,6.68
2023-02-15T05:22:35.935Z,5.90
2023-02-15T05:23:47.366Z,8.80
2023-02-15T05:25:17.553Z,9.95
2023-02-15T05:27:07.424Z,7.03
2023-02-15T05:28:21.877Z,6.65
2023-02-15T05:29:33.367Z,9.40
2023-02-15T05:30:45.014Z,8.50
2023-02-15T05:31:56.822Z,9.73
2023-02-15T05:33:08.801Z,9.43
2023-02-15T05:34:20.256Z,9.77
2023-02-15T05:35:31.673Z,8.13
2023-02-15T05:36:43.191Z,7.35
2023-02-15T05:37:54.739Z,7.85
2023-02-15T05:39:06.935Z,8.10
2023-02-15T05:40:18.481Z,9.77
2023-02-15T05:41:29.953Z,9.93
2023-02-15T05:42:41.391Z,11.63
2023-02-15T05:43:52.894Z,10.82
2023-02-15T05:45:04.843Z,10.85
2023-02-15T05:46:16.432Z,10.18
2023-02-15T05:47:27.903Z,18.63
2023-02-15T05:48:39.451Z,13.95
2023-02-15T05:49:50.896Z,17.77
2023-02-15T05:51:14.215Z,18.38
2023-02-15T05:52:25.700Z,17.63
2023-02-15T05:53:38.455Z,18.02
2023-02-15T05:54:49.879Z,19.42
2023-02-15T05:56:02.090Z,18.55
2023-02-15T05:57:13.837Z,16.50
2023-02-15T05:58:28.943Z,15.20
2023-02-15T05:59:40.391Z,13.10
2023-02-15T06:00:51.869Z,15.65
2023-02-15T06:02:03.379Z,14.85
2023-02-15T06:03:14.914Z,15.57
2023-02-15T06:04:26.433Z,17.83
2023-02-15T06:05:37.977Z,14.90
2023-02-15T06:06:49.475Z,16.05
2023-02-15T06:08:01.012Z,19.42
2023-02-15T06:09:13.457Z,18.38
2023-02-15T06:10:25.006Z,18.17
2023-02-15T06:11:36.679Z,16.67
2023-02-15T06:12:48.124Z,18.58
2023-02-15T06:13:59.660Z,17.95
2023-02-15T06:15:11.148Z,19.95
2023-02-15T06:16:22.924Z,19.67
2023-02-15T06:17:34.642Z,19.80
2023-02-15T06:18:46.176Z,20.88
2023-02-15T06:19:57.687Z,22.98
2023-02-15T06:21:09.164Z,32.33
2023-02-15T06:22:21.409Z,28.95
2023-02-15T06:23:32.984Z,26.50
2023-02-15T06:24:44.559Z,24.98
2023-02-15T06:25:56.154Z,27.30
2023-02-15T06:27:07.612Z,28.02
2023-02-15T06:28:19.350Z,27.42
2023-02-15T06:29:31.070Z,22.38
2023-02-15T06:30:42.654Z,22.98
2023-02-15T06:31:54.202Z,20.80
2023-02-15T06:33:05.768Z,16.27
2023-02-15T06:34:17.297Z,15.90
2023-02-15T06:35:28.869Z,17.92
2023-02-15T06:36:40.381Z,14.30
2023-02-15T06:37:51.788Z,17.27
2023-02-15T06:39:04.116Z,22.23
2023-02-15T06:40:16.010Z,19.10
2023-02-15T06:41:27.513Z,25.13
2023-02-15T06:42:39.152Z,26.83
2023-02-15T06:43:51.304Z,21.40
2023-02-15T06:45:02.868Z,29.98
2023-02-15T06:46:14.369Z,29.45
2023-02-15T06:47:25.912Z,26.08
2023-02-15T06:48:37.629Z,26.77
2023-02-15T06:49:49.069Z,25.40
2023-02-15T06:51:00.541Z,27.92
2023-02-15T06:52:14.183Z,19.95
2023-02-15T06:53:25.857Z,16.20
2023-02-15T06:54:37.328Z,15.10
2023-02-15T06:55:48.876Z,14.18
2023-02-15T06:57:00.376Z,16.75
2023-02-15T06:58:12.036Z,13.35
2023-02-15T06:59:23.546Z,13.63
2023-02-15T07:00:35.032Z,10.07
2023-02-15T07:01:46.630Z,10.82
2023-02-15T07:02:59.010Z,10.98
2023-02-15T07:04:10.655Z,9.15
2023-02-15T07:05:22.783Z,12.05
2023-02-15T07:06:34.672Z,15.90
2023-02-15T07:07:46.309Z,11.45
2023-02-15T07:08:57.759Z,14.10
2023-02-15T07:10:09.435Z,10.38
2023-02-15T07:11:39.608Z,14.35
2023-02-15T07:12:51.267Z,11.95
2023-02-15T07:14:02.743Z,12.23
2023-02-15T07:15:16.016Z,9.45
2023-02-15T07:16:27.797Z,9.35
2023-02-15T07:17:39.691Z,11.77
2023-02-15T07:18:51.197Z,13.57
2023-02-15T07:20:04.079Z,11.52
2023-02-15T07:21:15.596Z,11.73
2023-02-15T07:22:27.084Z,10.60
2023-02-15T07:23:39.239Z,12.63
2023-02-15T07:24:50.899Z,12.73
2023-02-15T07:26:03.183Z,13.40
2023-02-15T07:27:14.807Z,12.90
2023-02-15T07:28:26.229Z,11.00
2023-02-15T07:29:37.735Z,14.50
2023-02-15T07:30:49.290Z,13.38
2023-02-15T07:32:00.892Z,15.35
2023-02-15T07:33:24.288Z,13.75
2023-02-15T07:34:35.776Z,12.95
2023-02-15T07:36:03.217Z,15.88
2023-02-15T07:37:14.985Z,11.25
2023-02-15T07:38:27.196Z,16.00
2023-02-15T07:39:38.734Z,14.82
2023-02-15T07:40:50.249Z,15.30
2023-02-15T07:42:02.084Z,12.98
2023-02-15T07:43:14.075Z,15.48
2023-02-15T07:44:25.540Z,13.90
2023-02-15T07:45:37.386Z,14.07
2023-02-15T07:46:48.954Z,13.25
2023-02-15T07:48:01.570Z,17.48
2023-02-15T07:49:13.098Z,16.00
2023-02-15T07:50:24.606Z,15.23
2023-02-15T07:51:36.072Z,17.70
2023-02-15T07:52:47.637Z,18.50
2023-02-15T07:53:59.194Z,17.40
2023-02-15T07:55:13.872Z,18.70
2023-02-15T07:56:25.610Z,17.20
2023-02-15T07:57:37.090Z,17.60
2023-02-15T07:58:51.732Z,16.88
2023-02-15T08:00:03.697Z,17.80
2023-02-15T08:01:15.422Z,17.52
2023-02-15T08:02:26.994Z,15.85
2023-02-15T08:03:38.528Z,17.20
2023-02-15T08:04:50.186Z,16.08
2023-02-15T08:06:02.073Z,14.43
2023-02-15T08:07:13.802Z,12.63
2023-02-15T08:08:31.357Z,12.93
2023-02-15T08:09:42.867Z,12.80
2023-02-15T08:11:12.742Z,13.32
2023-02-15T08:12:24.261Z,12.45
2023-02-15T08:13:35.738Z,12.13
2023-02-15T08:14:47.327Z,11.32
2023-02-15T08:15:58.894Z,15.05
2023-02-15T08:17:10.454Z,13.98
2023-02-15T08:18:21.902Z,14.73
2023-02-15T08:19:33.655Z,13.75
2023-02-15T08:20:50.171Z,13.52
2023-02-15T08:22:06.081Z,14.82
2023-02-15T08:23:17.567Z,13.73
2023-02-15T08:24:30.366Z,12.13
2023-02-15T08:25:41.836Z,14.13
2023-02-15T08:26:54.032Z,12.50
2023-02-15T08:28:05.504Z,7.60
2023-02-15T08:29:19.627Z,9.25
2023-02-15T08:30:31.184Z,8.48
2023-02-15T08:31:43.218Z,10.63
2023-02-15T08:32:54.732Z,10.90
2023-02-15T08:34:06.866Z,9.45
2023-02-15T08:35:18.375Z,10.00
2023-02-15T08:36:30.851Z,9.43
2023-02-15T08:37:42.352Z,9.43
2023-02-15T08:38:54.079Z,9.18
2023-02-15T08:40:06.326Z,8.48
2023-02-15T08:41:17.979Z,9.27
2023-02-15T08:42:29.507Z,10.20
2023-02-15T08:43:41.119Z,10.07
2023-02-15T08:44:52.819Z,8.95
2023-02-15T08:46:04.385Z,8.13
2023-02-15T08:47:15.796Z,9.65
2023-02-15T08:48:27.278Z,10.20
2023-02-15T08:49:38.770Z,8.48
2023-02-15T08:50:50.372Z,8.45
2023-02-15T08:52:02.006Z,8.95
2023-02-15T08:53:15.485Z,11.32
2023-02-15T08:54:27.688Z,16.30
2023-02-15T08:55:40.819Z,18.10
2023-02-15T08:56:52.387Z,18.92
2023-02-15T08:58:03.863Z,17.40
2023-02-15T08:59:17.382Z,22.23
2023-02-15T09:00:29.409Z,19.65
2023-02-15T09:01:40.996Z,19.02
2023-02-15T09:02:53.446Z,13.77
2023-02-15T09:04:06.462Z,10.73
2023-02-15T09:05:17.970Z,9.30
2023-02-15T09:06:29.514Z,9.23
2023-02-15T09:07:41.031Z,10.55
2023-02-15T09:08:52.881Z,9.43
2023-02-15T09:10:04.480Z,8.65
2023-02-15T09:11:24.734Z,8.95
2023-02-15T09:12:36.235Z,9.35
2023-02-15T09:13:47.659Z,10.30
2023-02-15T09:14:59.264Z,8.20
2023-02-15T09:16:11.441Z,8.95
2023-02-15T09:17:23.012Z,8.80
2023-02-15T09:18:36.514Z,7.88
2023-02-15T09:19:47.973Z,8.80
2023-02-15T09:21:04.520Z,9.40
2023-02-15T09:22:16.113Z,11.23
2023-02-15T09:23:28.802Z,9.13
2023-02-15T09:24:40.276Z,11.52
2023-02-15T09:25:51.926Z,8.10
2023-02-15T09:27:03.499Z,13.05
2023-02-15T09:28:16.080Z,11.85
2023-02-15T09:29:30.056Z,12.43
2023-02-15T09:30:41.700Z,12.73
2023-02-15T09:31:54.694Z,11.18
2023-02-15T09:33:06.308Z,10.02
2023-02-15T09:34:19.741Z,12.07
2023-02-15T09:35:31.433Z,9.90
2023-02-15T09:36:43.083Z,9.88
2023-02-15T09:37:54.644Z,8.82
2023-02-15T09:39:06.931Z,10.45
2023-02-15T09:40:19.002Z,10.60
2023-02-15T09:41:36.693Z,8.63
2023-02-15T09:42:59.970Z,7.75
2023-02-15T09:44:30.014Z,7.50
2023-02-15T09:45:44.392Z,7.82
2023-02-15T09:46:55.913Z,6.78
2023-02-15T09:48:28.576Z,5.97
2023-02-15T09:49:46.105Z,6.32
2023-02-15T09:51:06.728Z,7.60
2023-02-15T09:52:18.204Z,6.60
2023-02-15T09:53:42.022Z,6.05
2023-02-15T09:55:13.733Z,7.07
2023-02-15T09:56:39.869Z,7.53
2023-02-15T09:57:51.363Z,6.70
2023-02-15T09:59:11.838Z,6.82
2023-02-15T10:00:52.637Z,6.85
2023-02-15T10:02:04.869Z,5.95
2023-02-15T10:03:25.187Z,6.18
2023-02-15T10:04:47.135Z,7.05
2023-02-15T10:06:04.722Z,5.95
2023-02-15T10:07:28.147Z,7.40
2023-02-15T10:08:39.568Z,6.97
2023-02-15T10:10:04.888Z,8.20
2023-02-15T10:11:41.089Z,6.78
2023-02-15T10:13:01.929Z,6.65
2023-02-15T10:14:16.288Z,7.18
2023-02-15T10:15:46.464Z,10.35
2023-02-15T10:17:15.687Z,8.43
2023-02-15T10:18:27.260Z,9.02
2023-02-15T10:19:59.019Z,8.23
2023-02-15T10:21:21.449Z,8.43
2023-02-15T10:22:39.303Z,8.77
2023-02-15T10:23:58.769Z,6.85
2023-02-15T10:25:13.290Z,5.85
2023-02-15T10:26:43.337Z,6.13
2023-02-15T10:27:54.876Z,8.35
2023-02-15T10:29:09.477Z,9.75
2023-02-15T10:30:32.859Z,7.13
2023-02-15T10:31:53.315Z,6.53
2023-02-15T10:33:11.279Z,8.23
2023-02-15T10:34:32.549Z,6.88
2023-02-15T10:36:02.246Z,6.68
2023-02-15T10:37:20.983Z,7.82
2023-02-15T10:38:41.627Z,6.75
2023-02-15T10:39:59.076Z,6.57
2023-02-15T10:41:10.519Z,6.45
2023-02-15T10:42:28.035Z,6.00
2023-02-15T10:43:49.450Z,8.68
2023-02-15T10:45:03.743Z,7.47
2023-02-15T10:46:15.228Z,6.32
2023-02-15T10:47:42.588Z,7.03
2023-02-15T10:48:54.184Z,8.30
2023-02-15T10:50:08.950Z,6.75
2023-02-15T10:51:50.023Z,7.45
2023-02-15T10:53:20.035Z,7.43
2023-02-15T10:54:34.392Z,7.60
2023-02-15T10:55:45.774Z,8.02
2023-02-15T10:56:59.966Z,9.55
2023-02-15T10:58:20.871Z,7.10
2023-02-15T10:59:41.267Z,8.27
2023-02-15T11:00:52.951Z,8.18
2023-02-15T11:02:10.695Z,7.60
2023-02-15T11:03:25.110Z,9.00
2023-02-15T11:04:39.756Z,9.93
2023-02-15T11:05:58.976Z,11.43
2023-02-15T11:07:17.680Z,7.57
2023-02-15T11:08:31.090Z,6.68
2023-02-15T11:09:45.529Z,8.90
2023-02-15T11:11:03.170Z,9.25
2023-02-15T11:12:17.620Z,8.07
2023-02-15T11:13:34.931Z,7.10
2023-02-15T11:14:50.618Z,7.70
2023-02-15T11:16:05.035Z,7.85
2023-02-15T11:17:22.032Z,8.43
2023-02-15T11:18:35.520Z,7.68
2023-02-15T11:20:10.067Z,9.05
2023-02-15T11:21:42.008Z,8.27
2023-02-15T11:22:54.515Z,9.10
2023-02-15T11:24:10.888Z,9.20
2023-02-15T11:25:25.597Z,8.60
2023-02-15T11:26:57.696Z,8.88
2023-02-15T11:28:15.922Z,9.35
2023-02-15T11:29:37.027Z,7.63
2023-02-15T11:30:52.875Z,7.45
2023-02-15T11:32:19.542Z,8.77
2023-02-15T11:33:35.076Z,8.63
2023-02-15T11:35:07.561Z,8.27
2023-02-15T11:36:24.086Z,8.32
2023-02-15T11:37:38.306Z,7.78
2023-02-15T11:38:51.975Z,8.05
2023-02-15T11:40:05.080Z,7.55
2023-02-15T11:41:20.302Z,7.47
2023-02-15T11:42:34.175Z,7.60
2023-02-15T11:43:45.859Z,8.85
2023-02-15T11:44:57.314Z,6.90
2023-02-15T11:46:12.040Z,7.13
2023-02-15T11:47:23.850Z,7.35
2023-02-15T11:48:35.323Z,6.80
2023-02-15T11:49:47.020Z,7.55
2023-02-15T11:50:58.947Z,6.75
2023-02-15T11:52:13.616Z,7.78
2023-02-15T11:53:27.947Z,8.98
2023-02-15T11:54:43.900Z,7.53
2023-02-15T11:55:56.109Z,6.60
2023-02-15T11:57:15.663Z,6.80
2023-02-15T11:58:27.238Z,5.43
2023-02-15T11:59:41.137Z,7.40
2023-02-15T12:00:59.137Z,8.13
2023-02-15T12:02:18.681Z,7.07
2023-02-15T12:03:43.103Z,7.80
2023-02-15T12:05:10.170Z,7.18
2023-02-15T12:06:24.592Z,8.05
2023-02-15T12:07:43.278Z,6.85
2023-02-15T12:09:01.938Z,7.07
2023-02-15T12:10:35.163Z,6.97
2023-02-15T12:11:46.977Z,6.43
2023-02-15T12:13:10.625Z,7.22
2023-02-15T12:14:22.662Z,8.10
2023-02-15T12:15:36.341Z,7.07
2023-02-15T12:16:49.705Z,7.70
2023-02-15T12:18:01.224Z,6.80
2023-02-15T12:19:27.626Z,7.13
2023-02-15T12:20:39.317Z,7.60
2023-02-15T12:21:52.137Z,6.82
2023-02-15T12:23:05.369Z,6.93
2023-02-15T12:24:19.919Z,6.88
2023-02-15T12:25:38.017Z,7.15
2023-02-15T12:27:01.551Z,6.60
2023-02-15T12:28:28.254Z,6.80
2023-02-15T12:29:44.178Z,6.38
2023-02-15T12:30:56.601Z,6.25
2023-02-15T12:32:12.705Z,6.50
2023-02-15T12:33:30.756Z,7.88
2023-02-15T12:34:43.942Z,7.15
2023-02-15T12:36:16.356Z,6.68
2023-02-15T12:37:29.583Z,6.90
2023-02-15T12:38:41.075Z,6.20
2023-02-15T12:39:54.365Z,8.38
2023-02-15T12:41:22.263Z,6.45
2023-02-15T12:42:44.252Z,6.53
2023-02-15T12:44:14.752Z,6.68
2023-02-15T12:45:31.095Z,7.32
2023-02-15T12:46:42.766Z,7.82
2023-02-15T12:48:13.024Z,7.45
2023-02-15T12:49:26.055Z,7.18
2023-02-15T12:50:37.564Z,7.38
2023-02-15T12:51:49.092Z,6.72
2023-02-15T12:53:15.713Z,7.57
2023-02-15T12:54:39.542Z,7.60
2023-02-15T12:55:55.403Z,7.68
2023-02-15T12:57:22.336Z,7.57
2023-02-15T12:58:39.609Z,7.90
2023-02-15T12:59:52.342Z,8.45
2023-02-15T13:01:10.068Z,6.50
2023-02-15T13:02:26.194Z,7.40
2023-02-15T13:03:40.394Z,7.88
2023-02-15T13:04:52.487Z,7.65
2023-02-15T13:06:08.332Z,7.30
2023-02-15T13:07:20.181Z,7.10
2023-02-15T13:08:32.943Z,6.70
2023-02-15T13:09:45.372Z,7.55
2023-02-15T13:11:00.205Z,7.43
2023-02-15T13:12:17.584Z,6.95
2023-02-15T13:13:30.550Z,7.78
2023-02-15T13:14:45.500Z,11.10
2023-02-15T13:16:03.151Z,9.13
2023-02-15T13:17:17.039Z,7.65
2023-02-15T13:18:41.851Z,8.30
2023-02-15T13:19:55.544Z,8.52
2023-02-15T13:21:27.309Z,9.73
2023-02-15T13:22:43.312Z,7.38
2023-02-15T13:23:58.180Z,6.68
2023-02-15T13:25:18.792Z,6.03
2023-02-15T13:26:31.654Z,5.85
2023-02-15T13:27:44.843Z,5.03
2023-02-15T13:28:58.661Z,6.00
2023-02-15T13:30:16.039Z,10.93
2023-02-15T13:31:33.479Z,11.50
2023-02-15T13:32:46.439Z,7.38
2023-02-15T13:34:01.121Z,9.95
2023-02-15T13:35:17.209Z,6.20
2023-02-15T13:36:28.770Z,7.60
2023-02-15T13:37:58.915Z,4.72
2023-02-15T13:39:11.727Z,10.77
2023-02-15T13:40:30.940Z,11.63
2023-02-15T13:41:48.532Z,10.73
2023-02-15T13:43:11.962Z,10.48
2023-02-15T13:44:35.356Z,5.65
2023-02-15T13:45:49.538Z,4.95
2023-02-15T13:47:00.980Z,5.50
2023-02-15T13:48:15.487Z,4.85
2023-02-15T13:49:40.049Z,5.15
2023-02-15T13:51:07.808Z,4.55
2023-02-15T13:52:24.096Z,6.85
2023-02-15T13:53:36.443Z,4.07
2023-02-15T13:54:47.956Z,5.05
2023-02-15T13:56:18.263Z,4.70
2023-02-15T13:57:41.812Z,5.03
2023-02-15T13:59:02.162Z,4.35
2023-02-15T14:00:25.133Z,4.53
2023-02-15T14:01:49.053Z,4.60
2023-02-15T14:03:00.530Z,6.80
2023-02-15T14:04:23.949Z,5.22
2023-02-15T14:05:49.638Z,4.80
2023-02-15T14:07:09.109Z,6.43
2023-02-15T14:08:23.813Z,5.20
2023-02-15T14:09:53.849Z,5.75
2023-02-15T14:11:24.136Z,4.65
2023-02-15T14:12:35.959Z,5.65
2023-02-15T14:14:06.114Z,5.88
2023-02-15T14:15:35.916Z,5.72
2023-02-15T14:17:06.786Z,8.95
2023-02-15T14:18:19.038Z,9.65
2023-02-15T14:19:36.524Z,11.35
2023-02-15T14:20:52.809Z,10.73
2023-02-15T14:22:24.929Z,7.85
2023-02-15T14:23:55.164Z,9.23
2023-02-15T14:25:06.834Z,8.05
2023-02-15T14:26:27.479Z,5.18
2023-02-15T14:27:57.447Z,5.20
2023-02-15T14:29:20.491Z,9.85
2023-02-15T14:30:34.138Z,7.90
2023-02-15T14:31:48.913Z,5.97
2023-02-15T14:33:32.727Z,6.60
2023-02-15T14:35:15.312Z,5.53
2023-02-15T14:36:28.858Z,8.18
2023-02-15T14:37:58.859Z,7.10
2023-02-15T14:39:38.066Z,9.07
2023-02-15T14:41:02.925Z,6.97
2023-02-15T14:42:19.892Z,6.57
2023-02-15T14:43:32.202Z,7.20
2023-02-15T14:44:54.752Z,7.53
2023-02-15T14:46:26.836Z,12.48
2023-02-15T14:47:40.502Z,9.52
2023-02-15T14:48:54.297Z,8.82
2023-02-15T14:50:24.282Z,8.27
2023-02-15T14:51:44.893Z,13.50
2023-02-15T14:53:29.758Z,11.65
2023-02-15T14:54:42.215Z,8.82
2023-02-15T14:56:27.634Z,10.75
2023-02-15T14:57:39.622Z,9.70
2023-02-15T14:58:51.102Z,7.45
2023-02-15T15:00:40.679Z,8.60
2023-02-15T15:01:58.584Z,6.82
2023-02-15T15:03:21.230Z,7.13
2023-02-15T15:04:52.205Z,8.68
2023-02-15T15:06:20.397Z,11.40
2023-02-15T15:08:17.914Z,8.25
2023-02-15T15:09:30.886Z,6.70
2023-02-15T15:10:44.252Z,7.45
2023-02-15T15:12:13.621Z,9.45
2023-02-15T15:13:31.184Z,9.32
2023-02-15T15:14:43.947Z,9.40
2023-02-15T15:15:55.567Z,9.27
2023-02-15T15:17:08.024Z,8.57
2023-02-15T15:18:38.501Z,8.55
2023-02-15T15:19:53.024Z,7.43
2023-02-15T15:21:05.189Z,8.45
2023-02-15T15:22:20.482Z,9.95
2023-02-15T15:23:39.919Z,8.68
2023-02-15T15:24:52.097Z,8.05
2023-02-15T15:26:21.707Z,15.90
2023-02-15T15:27:44.745Z,21.20
2023-02-15T15:28:57.415Z,18.73
2023-02-15T15:30:14.698Z,19.52
2023-02-15T15:31:38.362Z,15.90
2023-02-15T15:32:56.053Z,19.75
2023-02-15T15:34:13.485Z,17.77
2023-02-15T15:35:36.096Z,18.42
2023-02-15T15:36:50.375Z,14.05
2023-02-15T15:38:04.642Z,18.70
2023-02-15T15:39:34.720Z,22.13
2023-02-15T15:40:54.972Z,14.90
2023-02-15T15:42:25.115Z,11.68
2023-02-15T15:44:08.857Z,12.20
2023-02-15T15:45:40.851Z,8.20
2023-02-15T15:47:10.842Z,7.70
2023-02-15T15:48:30.642Z,53.75
2023-02-15T15:49:42.335Z,33.47
2023-02-15T15:50:57.808Z,28.60
2023-02-15T15:52:19.600Z,19.80
2023-02-15T15:53:34.015Z,17.23
2023-02-15T15:54:47.172Z,16.90
2023-02-15T15:56:02.097Z,20.80
2023-02-15T15:57:17.899Z,17.85
2023-02-15T15:58:31.590Z,13.73
2023-02-15T15:59:45.540Z,9.68
2023-02-15T16:01:00.530Z,8.05
2023-02-15T16:02:14.113Z,9.40
2023-02-15T16:03:27.082Z,7.88
2023-02-15T16:04:38.618Z,10.02
2023-02-15T16:05:56.859Z,12.00
2023-02-15T16:07:17.708Z,11.90
2023-02-15T16:08:30.597Z,20.40
2023-02-15T16:09:42.023Z,21.65
2023-02-15T16:10:54.278Z,14.50
2023-02-15T16:12:13.439Z,11.68
2023-02-15T16:13:25.079Z,11.80
2023-02-15T16:14:37.670Z,9.88
2023-02-15T16:15:53.239Z,27.65
2023-02-15T16:17:06.899Z,36.25
2023-02-15T16:18:19.304Z,43.70
2023-02-15T16:19:34.346Z,56.42
2023-02-15T16:20:52.034Z,40.65
2023-02-15T16:22:04.540Z,29.67
2023-02-15T16:23:39.970Z,17.15
2023-02-15T16:24:54.247Z,20.95
2023-02-15T16:27:43.136Z,22.65
2023-02-15T16:28:55.406Z,43.25
2023-02-15T16:30:25.866Z,37.40
2023-02-15T16:31:37.637Z,18.35
2023-02-15T16:32:49.720Z,23.77
2023-02-15T16:34:01.243Z,18.38
2023-02-15T16:37:19.363Z,11.60
2023-02-15T16:38:43.153Z,12.93
2023-02-15T16:39:56.245Z,12.23
2023-02-15T16:41:07.807Z,10.88
2023-02-15T16:42:19.916Z,10.80
2023-02-15T16:43:32.077Z,12.43
2023-02-15T16:44:44.354Z,12.48